Lyonsdale, New York
Current Conditions -  °F | °C
As of 4:30 AM on Thursday 18 Dec 2014 (Local Time) from KRME Reporting Station
Light Snow Light Snow  
Wind Chill: 21°   Ceiling: 1100
Heat Index: 31°   Visibility: 3mi
Dew Point: 29°   Wind: 13mph
Humidity: 92%   Direction: 270°W
Pressure: 29.92"   Gusts: NA
Location:  43.6433°N, 75.3374°W
Report Text: KRME 180930Z AUTO 27011KT 3SM -SN BR OVC011 M01/M02 A2992 RMK AO2 CIG 007V013 P0000 T10061017
Loading
Personal Weather Stations






























Interactive Weather Map New forecast layout! Learn more

10-Day Weather Forecast

Advertisements
Track Severe Weather on mobile